SSEC Globe Logo

Space Science and Engineering Center

Regional Terminal Forecasts

KMSN 150903Z 1509/1606 13004KT P6SM SCT120 BKN250 FM151200
     16008KT P6SM VCSH BKN080 WS020/21040KT FM151600
     21011G17KT P6SM VCSH SCT025 BKN050 FM151800 24011G20KT
     P6SM SCT020 BKN040 FM152200 26013G21KT P6SM BKN025
     FM160300 29015G29KT P6SM OVC015=
KMKE 150904Z 1509/1612 21005KT P6SM FEW120 BKN250 FM151300
     18010KT P6SM BKN100 WS020/21040KT FM151500 18012G22KT
     P6SM VCSH SCT030 OVC080 FM151900 22012G21KT P6SM VCSH
     SCT025 BKN040 FM152100 25012KT P6SM SCT025 BKN050
     FM152300 27012G21KT P6SM BKN025 FM160900 30017G28KT
     P6SM BKN019=
TAF KGRB 150520Z 1506/1606 16005KT P6SM BKN120 FM151100
     16009G14KT 6SM -RA BKN040 WS014/17035KT FM151500
     17011G22KT 5SM RA OVC030 FM151700 19010G18KT 4SM -RA BR
     OVC020 FM152100 24011G20KT P6SM -SHRA OVC018 FM160000
     27010G18KT P6SM BKN018=
KAUW 150520Z 1506/1606 13005KT P6SM BKN060 FM151000 13006KT
     P6SM -RA OVC035 WS019/18035KT FM151300 13008G13KT 6SM
     -RA OVC017 WS019/18035KT FM151500 15008G15KT 5SM -SHRA
     OVC009 FM151700 22007G16KT 6SM -SHRA OVC009 FM152100
     31011G19KT P6SM -SHRA OVC012=
KEAU 150905Z 1509/1606 10007KT P6SM VCSH OVC060 TEMPO
     1509/1511 TSRA SCT025 OVC040CB FM151500 25007KT P6SM
     OVC018 FM152000 30012G18KT 6SM -SHRA OVC012 FM160200
     32012G18KT P6SM OVC015=
TAF AMD KLSE 150556Z 1506/1606 12005KT P6SM BKN200 FM150645
     13007KT P6SM VCSH BKN090 WS020/19035KT FM151400 22011KT
     P6SM OVC150 FM151800 28013G24KT P6SM BKN040 FM152100
     31014G26KT P6SM OVC025=
KDBQ 150528Z 1506/1606 12008KT P6SM BKN200 WS015/20040KT
     FM151300 19009KT P6SM BKN100 FM151700 29017G28KT P6SM
     SCT025 FM152000 30018G30KT P6SM OVC020 FM160100
     31015G24KT P6SM OVC025=
TAFRFD TAF AMD KRFD 150924Z 1509/1606 13004KT P6SM SCT250
     FM151200 16010KT P6SM BKN060 OVC100 TEMPO 1513/1515 6SM
     -SHRA BKN030 FM151500 19011KT P6SM OVC015 FM152000
     27014G22KT P6SM SCT020 BKN050 FM160200 29016G27KT P6SM
     BKN020 OVC030=
TAFORD TAF AMD KORD 150924Z 1509/1612 15008KT P6SM SCT250
     FM151400 17012G20KT P6SM BKN050 BKN100 TEMPO 1515/1517
     6SM -SHRA FM151800 21012G20KT P6SM BKN015 OVC025 TEMPO
     1520/1522 6SM -SHRA FM152300 27013G22KT P6SM SCT020
     BKN050 FM160400 29016G27KT P6SM BKN020 OVC030=